x

Gulf Of Maine - 78 Nm East Of Portsmouth, Nh (44005) Wave Buoy

8:50 - Mon 30th May 2016 All times are EDT. -4 hours from GMT.

  • Sig Wave height 2.0ft
  • Peak Period 5s
  • Average Period 4s
  • Wind
    13mph, 16mph gusts
  • Sea Temp 51°f
  • Air Temp 56°f
  • Sea Pressure 1011mb
  • Gulf Of Maine - 78 Nm East Of Portsmouth, Nh
  • Gulf Of Maine - 78 Nm East Of Portsmouth, Nh

More Historic Weather Station data

Upgrade to MSW Pro to gain access to the past 30 days of data for over 8000 Wavebouys and Weather Stations around the globe.

Join Pro

Comparision Forecast

View Surf forecast
   
lun. 05/30 8:50 2ft 5s 4s 13 16 mph 1011mb 51f 56f
7:50 2ft 5s 5s 13 16 mph 1011mb 52f 56f
6:50 1.6ft 5s 5s 11
mph
1011.3mb 52f 55f
5:50 2ft 5s 5s 11
mph
1011.7mb 52f 54f
4:50 2ft 5s 5s 13 16 mph 1011.8mb 52f 54f
3:50 2ft 6s 5s 13
mph
1012.1mb 51f 53f
2:50 2.5ft 5s 5s 11
mph
1013.1mb 51f 53f
1:50 2.5ft 5s 5s 7
mph
1014.4mb 51f 52f
12:50 2.5ft 5s 5s 4
mph
1014.7mb 51f 52f
11:50 2.5ft 5s 5s 4
mph
1015.2mb 51f 52f
10:50 2.5ft 5s 5s 4
mph
1015.6mb 50f 51f
9:50 2.5ft 6s 5s  -  2 mph 1015.8mb 50f 51f
8:50 2.5ft 6s 5s  -  2 mph 1016.3mb 50f 51f
7:50 2.5ft 6s 5s 4 7 mph 1016.7mb 50f 51f
6:50 2.5ft 5s 5s 4
mph
1016.7mb 50f 51f
5:50 3ft 6s 5s 7
mph
1017mb 50f 51f
4:50 2.5ft 6s 5s 4 7 mph 1016.9mb 50f 50f
3:50 3ft 6s 5s  -  mph 1017.7mb 50f 49f
2:50 3.5ft 6s 5s 4 7 mph 1018.8mb 50f 49f
1:50 3.5ft 6s 5s 2
mph
1019.2mb 50f 50f
12:50 4ft 6s 5s 2 4 mph 1020.1mb 50f 50f
dim. 05/29 11:50 4.5ft 6s 5s 7
mph
1020.4mb 50f 50f
10:50 4.5ft 6s 5s 7 9 mph 1021mb 50f 50f
9:50 4.5ft 6s 5s 11 13 mph 1021.4mb 50f 50f
8:50 4.5ft 6s 5s 13 16 mph 1021.5mb 50f 49f
7:50 4.5ft 6s 5s 16 18 mph 1021.5mb 50f 49f
6:50  -   -   -  13 16 mph 1021.7mb 50f 49f
5:50 4.5ft 6s 5s 16 20 mph 1021.9mb 50f 49f
4:50 4.5ft 6s 5s 16 20 mph 1022.3mb 50f 50f
3:50 4.5ft 5s 5s 18 20 mph 1022.7mb 50f 50f
2:50 4.5ft 6s 5s 16 18 mph 1023.4mb 50f 50f
1:50 4.5ft 6s 5s 18 20 mph 1023.2mb 51f 50f
12:50 4ft 6s 4s 16 20 mph 1023.6mb 50f 50f
11:50 4.5ft 6s 5s 16 18 mph 1024.1mb 51f 51f
10:50 4.5ft 6s 5s 16 20 mph 1024.1mb 51f 51f
9:50 5ft 5s 4s 18 22 mph 1023.5mb 51f 52f
8:50 5ft 5s 5s 20 22 mph 1023.4mb 51f 52f
7:50 5ft 5s 4s 22 27 mph 1022.8mb 52f 53f
6:50 4.5ft 5s 4s 22 27 mph 1022.4mb 52f 53f
5:50 4.5ft 4s 4s 22 27 mph 1021.9mb 52f 53f
4:50 3.5ft 4s 4s 22 29 mph 1021mb 53f 53f
3:50 2.5ft 3s 4s 18 22 mph 1020.9mb 53f 54f
2:50 2.5ft 6s 4s 13 16 mph 1021.1mb 53f 54f
1:50 2.5ft 5s 4s 16 18 mph 1021.1mb 52f 54f
12:50 2.5ft 5s 4s 9 11 mph 1021.1mb 52f 54f
sam. 05/28 11:50 2ft 7s 4s 11 13 mph 1020.5mb 52f 54f
10:50 2ft 5s 4s 11
mph
1020.4mb 53f 55f
9:50 2ft 7s 4s 11 13 mph 1020.4mb 53f 55f
8:50 2ft 5s 5s 13 16 mph 1019.8mb 53f 56f
7:50 2ft 5s 5s 11 13 mph 1019.2mb 53f 56f
6:50 2ft 6s 5s 9 11 mph 1018.1mb 54f 56f
5:50 2.5ft 5s 5s 9
mph
1017.9mb 56f 57f
4:50 2.5ft 5s 5s 4 7 mph 1017.9mb 56f 58f
3:50 2.5ft 5s 5s 4
mph
1017.8mb 56f 58f
2:50 2ft 5s 5s 7
mph
1017.6mb 56f 57f
1:50 2.5ft 5s 5s 2 4 mph 1017.9mb 54f 57f
12:50 2.5ft 5s 5s 7
mph
1017.9mb 54f 56f
11:50 2.5ft 5s 5s 4 7 mph 1018.2mb 54f 55f
10:50 2.5ft 5s 5s 7
mph
1018.2mb 53f 55f
9:50 2.5ft 5s 5s 9 11 mph 1017.9mb 53f 55f
8:50 3ft 6s 5s 9
mph
1017.8mb 52f 55f
7:50 3ft 5s 5s 9
mph
1017.3mb 52f 55f
6:50 3ft 5s 5s 7 9 mph 1016.9mb 51f 55f
5:50 3ft 5s 5s 9
mph
1016.4mb 51f 54f
4:50 3ft 5s 4s 4 7 mph 1015.8mb 51f 55f
3:50 3.5ft 5s 5s 7
mph
1016.3mb 51f 54f
2:50 3.5ft 5s 4s 13 16 mph 1015.7mb 52f 55f
1:50 3ft 4s 4s 9 11 mph 1016.1mb 52f 55f
12:50 2.5ft 7s 4s 11 13 mph 1016.3mb 52f 55f
ven. 05/27 11:50 2.5ft 4s 4s 11 13 mph 1016.3mb 52f 56f
10:50 2.5ft 4s 5s 9
mph
1016.3mb 52f 55f
9:50 2.5ft 4s 5s 7 9 mph 1016.6mb 52f 53f
8:50 2.5ft 5s 5s 4 7 mph 1016.8mb 52f 52f
7:50 2.5ft 4s 4s 4 7 mph 1017.1mb 52f 51f
6:50 2.5ft 4s 4s 4 7 mph 1017.2mb 53f 52f
5:50 2.5ft 5s 4s 9 11 mph 1017.5mb 53f 52f
4:50  -   -   -  9 11 mph 1017.3mb 53f 53f
3:50 3ft 5s 4s 9 11 mph 1018.2mb 53f 53f
2:50 2.5ft 4s 4s 4 7 mph 1019mb 52f 53f
1:50 2.5ft 4s 4s 9 11 mph 1019.4mb 52f 53f
12:50 3ft 6s 4s 11 13 mph 1019.8mb 52f 53f
11:50 3ft 4s 4s 9 11 mph 1020.5mb 52f 53f
10:50 2.5ft 6s 4s 9 11 mph 1021.1mb 51f 53f
9:50 2.5ft 7s 4s 9 11 mph 1020.8mb 51f 53f
8:50 2.5ft 8s 4s 13 16 mph 1020.6mb 51f 53f
7:50 2.5ft 7s 4s 16 18 mph 1020.8mb 51f 53f
6:50 2.5ft 7s 4s 13 16 mph 1021.1mb 51f 53f
5:50 2.5ft 7s 4s 13 16 mph 1021.1mb 52f 53f
4:50 2ft 8s 5s 13
mph
1020.9mb 52f 53f
3:50 2ft 8s 5s 11 13 mph 1020.9mb 52f 53f
2:50 2ft 8s 5s 13 16 mph 1020.9mb 51f 53f